sensor_id;sensor_type;location;lat;lon;timestamp;P1;durP1;ratioP1;P2;durP2;ratioP2
23410;SDS011;11878;51.774;7.220;2023-11-21T00:02:46;11.83;;;4.10;;
23410;SDS011;11878;51.774;7.220;2023-11-21T00:05:48;6.87;;;3.63;;
23410;SDS011;11878;51.774;7.220;2023-11-21T00:08:50;5.77;;;3.63;;
23410;SDS011;11878;51.774;7.220;2023-11-21T00:11:52;10.97;;;5.60;;
23410;SDS011;11878;51.774;7.220;2023-11-21T00:14:53;11.43;;;4.40;;
23410;SDS011;11878;51.774;7.220;2023-11-21T00:17:59;11.03;;;5.17;;
23410;SDS011;11878;51.774;7.220;2023-11-21T00:21:01;13.13;;;4.23;;
23410;SDS011;11878;51.774;7.220;2023-11-21T00:24:03;7.43;;;4.83;;
23410;SDS011;11878;51.774;7.220;2023-11-21T00:34:17;8.53;;;4.53;;
23410;SDS011;11878;51.774;7.220;2023-11-21T00:37:19;12.47;;;4.20;;
23410;SDS011;11878;51.774;7.220;2023-11-21T00:40:21;8.27;;;3.77;;
23410;SDS011;11878;51.774;7.220;2023-11-21T00:43:23;12.20;;;4.27;;
23410;SDS011;11878;51.774;7.220;2023-11-21T00:46:25;11.20;;;4.30;;
23410;SDS011;11878;51.774;7.220;2023-11-21T00:49:30;9.17;;;3.67;;
23410;SDS011;11878;51.774;7.220;2023-11-21T00:52:33;9.13;;;4.17;;
23410;SDS011;11878;51.774;7.220;2023-11-21T00:55:35;9.87;;;3.87;;
23410;SDS011;11878;51.774;7.220;2023-11-21T00:58:37;7.87;;;3.93;;
23410;SDS011;11878;51.774;7.220;2023-11-21T01:01:39;9.23;;;3.73;;
23410;SDS011;11878;51.774;7.220;2023-11-21T01:04:41;7.43;;;3.90;;
23410;SDS011;11878;51.774;7.220;2023-11-21T01:07:43;10.77;;;3.37;;
23410;SDS011;11878;51.774;7.220;2023-11-21T01:10:45;7.50;;;3.70;;
23410;SDS011;11878;51.774;7.220;2023-11-21T01:13:47;8.37;;;3.70;;
23410;SDS011;11878;51.774;7.220;2023-11-21T01:16:49;8.43;;;4.03;;
23410;SDS011;11878;51.774;7.220;2023-11-21T01:19:51;9.90;;;3.77;;
23410;SDS011;11878;51.774;7.220;2023-11-21T01:22:53;7.50;;;4.03;;
23410;SDS011;11878;51.774;7.220;2023-11-21T01:25:55;8.73;;;3.97;;
23410;SDS011;11878;51.774;7.220;2023-11-21T01:28:58;6.03;;;3.43;;
23410;SDS011;11878;51.774;7.220;2023-11-21T01:32:00;6.87;;;3.57;;
23410;SDS011;11878;51.774;7.220;2023-11-21T01:35:03;18.47;;;3.73;;
23410;SDS011;11878;51.774;7.220;2023-11-21T01:38:07;11.50;;;3.80;;
23410;SDS011;11878;51.774;7.220;2023-11-21T01:41:09;7.33;;;3.43;;
23410;SDS011;11878;51.774;7.220;2023-11-21T01:44:12;10.60;;;3.17;;
23410;SDS011;11878;51.774;7.220;2023-11-21T01:47:14;7.13;;;3.33;;
23410;SDS011;11878;51.774;7.220;2023-11-21T01:50:17;10.17;;;4.10;;
23410;SDS011;11878;51.774;7.220;2023-11-21T01:53:19;14.20;;;3.93;;
23410;SDS011;11878;51.774;7.220;2023-11-21T01:56:23;10.23;;;3.73;;
23410;SDS011;11878;51.774;7.220;2023-11-21T01:59:25;9.03;;;3.47;;
23410;SDS011;11878;51.774;7.220;2023-11-21T02:02:28;8.27;;;3.57;;
23410;SDS011;11878;51.774;7.220;2023-11-21T02:05:29;10.53;;;3.47;;
23410;SDS011;11878;51.774;7.220;2023-11-21T02:08:32;12.87;;;4.30;;
23410;SDS011;11878;51.774;7.220;2023-11-21T02:11:34;9.57;;;3.80;;
23410;SDS011;11878;51.774;7.220;2023-11-21T02:14:36;9.97;;;4.07;;
23410;SDS011;11878;51.774;7.220;2023-11-21T02:17:38;14.57;;;3.87;;
23410;SDS011;11878;51.774;7.220;2023-11-21T02:20:41;20.27;;;5.03;;
23410;SDS011;11878;51.774;7.220;2023-11-21T02:23:44;16.73;;;4.30;;
23410;SDS011;11878;51.774;7.220;2023-11-21T02:26:50;25.53;;;5.03;;
23410;SDS011;11878;51.774;7.220;2023-11-21T02:29:52;12.47;;;4.80;;
23410;SDS011;11878;51.774;7.220;2023-11-21T02:32:55;21.17;;;5.40;;
23410;SDS011;11878;51.774;7.220;2023-11-21T02:36:00;18.90;;;5.53;;
23410;SDS011;11878;51.774;7.220;2023-11-21T02:39:02;29.53;;;6.10;;
23410;SDS011;11878;51.774;7.220;2023-11-21T02:42:04;13.67;;;4.93;;
23410;SDS011;11878;51.774;7.220;2023-11-21T02:45:06;17.87;;;6.13;;
23410;SDS011;11878;51.774;7.220;2023-11-21T02:48:09;16.40;;;4.90;;
23410;SDS011;11878;51.774;7.220;2023-11-21T02:51:11;14.37;;;5.30;;
23410;SDS011;11878;51.774;7.220;2023-11-21T02:54:13;12.83;;;5.47;;
23410;SDS011;11878;51.774;7.220;2023-11-21T02:57:17;14.20;;;5.43;;
23410;SDS011;11878;51.774;7.220;2023-11-21T03:00:19;10.03;;;4.53;;
23410;SDS011;11878;51.774;7.220;2023-11-21T03:03:25;12.87;;;5.17;;
23410;SDS011;11878;51.774;7.220;2023-11-21T03:06:27;9.70;;;5.03;;
23410;SDS011;11878;51.774;7.220;2023-11-21T03:09:29;9.73;;;4.93;;
23410;SDS011;11878;51.774;7.220;2023-11-21T03:12:31;10.03;;;5.20;;
23410;SDS011;11878;51.774;7.220;2023-11-21T03:15:32;10.60;;;5.93;;
23410;SDS011;11878;51.774;7.220;2023-11-21T03:18:36;7.97;;;4.67;;
23410;SDS011;11878;51.774;7.220;2023-11-21T03:21:39;11.63;;;4.97;;
23410;SDS011;11878;51.774;7.220;2023-11-21T03:24:40;12.17;;;5.03;;
23410;SDS011;11878;51.774;7.220;2023-11-21T03:27:42;9.37;;;4.30;;
23410;SDS011;11878;51.774;7.220;2023-11-21T03:30:45;7.60;;;4.10;;
23410;SDS011;11878;51.774;7.220;2023-11-21T03:33:47;10.07;;;5.23;;
23410;SDS011;11878;51.774;7.220;2023-11-21T03:36:48;10.53;;;5.20;;
23410;SDS011;11878;51.774;7.220;2023-11-21T03:39:50;10.13;;;4.97;;
23410;SDS011;11878;51.774;7.220;2023-11-21T03:42:52;9.93;;;5.87;;
23410;SDS011;11878;51.774;7.220;2023-11-21T03:45:54;7.63;;;4.80;;
23410;SDS011;11878;51.774;7.220;2023-11-21T03:48:56;10.17;;;5.50;;
23410;SDS011;11878;51.774;7.220;2023-11-21T03:51:58;10.83;;;5.30;;
23410;SDS011;11878;51.774;7.220;2023-11-21T04:08:32;9.33;;;5.40;;
23410;SDS011;11878;51.774;7.220;2023-11-21T04:11:35;12.90;;;4.80;;
23410;SDS011;11878;51.774;7.220;2023-11-21T04:14:36;11.37;;;5.63;;
23410;SDS011;11878;51.774;7.220;2023-11-21T04:17:38;9.80;;;5.03;;
23410;SDS011;11878;51.774;7.220;2023-11-21T04:20:40;13.27;;;5.50;;
23410;SDS011;11878;51.774;7.220;2023-11-21T04:23:42;11.73;;;5.27;;
23410;SDS011;11878;51.774;7.220;2023-11-21T04:30:14;9.93;;;5.77;;
23410;SDS011;11878;51.774;7.220;2023-11-21T04:33:16;10.10;;;5.60;;
23410;SDS011;11878;51.774;7.220;2023-11-21T04:36:18;8.80;;;4.87;;
23410;SDS011;11878;51.774;7.220;2023-11-21T04:39:21;9.27;;;5.03;;
23410;SDS011;11878;51.774;7.220;2023-11-21T04:42:22;11.03;;;5.67;;
23410;SDS011;11878;51.774;7.220;2023-11-21T04:45:24;11.77;;;5.73;;
23410;SDS011;11878;51.774;7.220;2023-11-21T04:52:04;11.73;;;5.10;;
23410;SDS011;11878;51.774;7.220;2023-11-21T04:55:06;7.83;;;4.13;;
23410;SDS011;11878;51.774;7.220;2023-11-21T04:58:11;13.37;;;6.77;;
23410;SDS011;11878;51.774;7.220;2023-11-21T05:05:09;11.87;;;5.33;;
23410;SDS011;11878;51.774;7.220;2023-11-21T05:11:42;10.70;;;5.73;;
23410;SDS011;11878;51.774;7.220;2023-11-21T05:14:44;10.13;;;5.33;;
23410;SDS011;11878;51.774;7.220;2023-11-21T05:17:45;10.33;;;5.33;;
23410;SDS011;11878;51.774;7.220;2023-11-21T05:20:51;12.47;;;5.30;;
23410;SDS011;11878;51.774;7.220;2023-11-21T05:27:30;11.00;;;6.03;;
23410;SDS011;11878;51.774;7.220;2023-11-21T05:30:32;9.87;;;5.50;;
23410;SDS011;11878;51.774;7.220;2023-11-21T05:33:34;9.93;;;5.47;;
23410;SDS011;11878;51.774;7.220;2023-11-21T05:36:35;14.63;;;5.73;;
23410;SDS011;11878;51.774;7.220;2023-11-21T05:39:37;13.40;;;5.87;;
23410;SDS011;11878;51.774;7.220;2023-11-21T05:42:39;14.93;;;5.83;;
23410;SDS011;11878;51.774;7.220;2023-11-21T05:49:19;13.83;;;6.90;;
23410;SDS011;11878;51.774;7.220;2023-11-21T06:03:09;12.17;;;5.90;;
23410;SDS011;11878;51.774;7.220;2023-11-21T06:06:11;15.63;;;7.33;;
23410;SDS011;11878;51.774;7.220;2023-11-21T06:16:21;27.10;;;8.63;;
23410;SDS011;11878;51.774;7.220;2023-11-21T06:19:23;26.20;;;8.83;;
23410;SDS011;11878;51.774;7.220;2023-11-21T06:22:25;36.00;;;10.90;;
23410;SDS011;11878;51.774;7.220;2023-11-21T06:25:26;22.60;;;9.20;;
23410;SDS011;11878;51.774;7.220;2023-11-21T06:28:28;31.37;;;11.20;;
23410;SDS011;11878;51.774;7.220;2023-11-21T06:31:30;32.10;;;10.03;;
23410;SDS011;11878;51.774;7.220;2023-11-21T06:34:34;32.93;;;11.20;;
23410;SDS011;11878;51.774;7.220;2023-11-21T06:41:06;34.00;;;10.33;;
23410;SDS011;11878;51.774;7.220;2023-11-21T06:47:50;29.10;;;10.40;;
23410;SDS011;11878;51.774;7.220;2023-11-21T06:50:52;27.30;;;9.73;;
23410;SDS011;11878;51.774;7.220;2023-11-21T06:57:32;36.50;;;10.53;;
23410;SDS011;11878;51.774;7.220;2023-11-21T07:00:34;38.13;;;10.40;;
23410;SDS011;11878;51.774;7.220;2023-11-21T07:17:42;21.93;;;9.43;;
23410;SDS011;11878;51.774;7.220;2023-11-21T07:20:45;30.83;;;11.83;;
23410;SDS011;11878;51.774;7.220;2023-11-21T07:23:48;31.57;;;10.03;;
23410;SDS011;11878;51.774;7.220;2023-11-21T07:26:49;24.73;;;9.23;;
23410;SDS011;11878;51.774;7.220;2023-11-21T07:29:51;40.23;;;11.30;;
23410;SDS011;11878;51.774;7.220;2023-11-21T07:40:04;22.87;;;9.90;;
23410;SDS011;11878;51.774;7.220;2023-11-21T07:50:04;23.50;;;10.70;;
23410;SDS011;11878;51.774;7.220;2023-11-21T07:53:06;22.57;;;9.80;;
23410;SDS011;11878;51.774;7.220;2023-11-21T08:03:10;19.10;;;8.83;;
23410;SDS011;11878;51.774;7.220;2023-11-21T08:06:12;19.47;;;8.63;;
23410;SDS011;11878;51.774;7.220;2023-11-21T08:09:14;23.07;;;9.47;;
23410;SDS011;11878;51.774;7.220;2023-11-21T08:12:18;22.87;;;10.27;;
23410;SDS011;11878;51.774;7.220;2023-11-21T08:15:21;26.80;;;10.27;;
23410;SDS011;11878;51.774;7.220;2023-11-21T08:18:23;20.67;;;8.87;;
23410;SDS011;11878;51.774;7.220;2023-11-21T08:38:53;21.73;;;10.20;;
23410;SDS011;11878;51.774;7.220;2023-11-21T09:03:27;19.43;;;9.73;;
23410;SDS011;11878;51.774;7.220;2023-11-21T09:13:31;20.67;;;8.90;;
23410;SDS011;11878;51.774;7.220;2023-11-21T09:16:33;16.70;;;8.10;;
23410;SDS011;11878;51.774;7.220;2023-11-21T09:23:06;17.80;;;8.67;;
23410;SDS011;11878;51.774;7.220;2023-11-21T09:37:02;15.77;;;8.07;;
23410;SDS011;11878;51.774;7.220;2023-11-21T09:40:08;18.00;;;9.13;;
23410;SDS011;11878;51.774;7.220;2023-11-21T09:43:15;18.93;;;8.33;;
23410;SDS011;11878;51.774;7.220;2023-11-21T09:46:20;14.63;;;7.50;;
23410;SDS011;11878;51.774;7.220;2023-11-21T09:49:24;15.20;;;6.87;;
23410;SDS011;11878;51.774;7.220;2023-11-21T09:52:29;18.37;;;7.63;;
23410;SDS011;11878;51.774;7.220;2023-11-21T09:55:34;19.57;;;8.20;;
23410;SDS011;11878;51.774;7.220;2023-11-21T09:58:39;17.73;;;8.27;;
23410;SDS011;11878;51.774;7.220;2023-11-21T10:01:41;20.37;;;9.00;;
23410;SDS011;11878;51.774;7.220;2023-11-21T10:04:44;16.13;;;7.17;;
23410;SDS011;11878;51.774;7.220;2023-11-21T10:07:48;23.83;;;10.33;;
23410;SDS011;11878;51.774;7.220;2023-11-21T10:21:11;17.43;;;8.60;;
23410;SDS011;11878;51.774;7.220;2023-11-21T10:24:13;21.87;;;9.70;;
23410;SDS011;11878;51.774;7.220;2023-11-21T10:51:20;24.97;;;9.63;;
23410;SDS011;11878;51.774;7.220;2023-11-21T10:54:23;21.63;;;9.03;;
23410;SDS011;11878;51.774;7.220;2023-11-21T11:15:36;24.03;;;9.97;;
23410;SDS011;11878;51.774;7.220;2023-11-21T11:18:39;20.80;;;9.37;;
23410;SDS011;11878;51.774;7.220;2023-11-21T11:32:27;19.20;;;8.10;;
23410;SDS011;11878;51.774;7.220;2023-11-21T11:35:46;16.83;;;7.63;;
23410;SDS011;11878;51.774;7.220;2023-11-21T11:42:34;18.53;;;8.13;;
23410;SDS011;11878;51.774;7.220;2023-11-21T11:45:37;15.40;;;6.73;;
23410;SDS011;11878;51.774;7.220;2023-11-21T11:48:45;14.67;;;7.07;;
23410;SDS011;11878;51.774;7.220;2023-11-21T11:51:47;13.70;;;6.97;;
23410;SDS011;11878;51.774;7.220;2023-11-21T11:54:48;19.03;;;7.60;;
23410;SDS011;11878;51.774;7.220;2023-11-21T11:57:54;19.30;;;7.70;;
23410;SDS011;11878;51.774;7.220;2023-11-21T12:01:00;15.00;;;6.60;;
23410;SDS011;11878;51.774;7.220;2023-11-21T12:07:21;14.40;;;6.93;;
23410;SDS011;11878;51.774;7.220;2023-11-21T12:17:18;11.80;;;5.73;;
23410;SDS011;11878;51.774;7.220;2023-11-21T12:20:21;13.73;;;6.17;;
23410;SDS011;11878;51.774;7.220;2023-11-21T12:23:24;13.30;;;6.17;;
23410;SDS011;11878;51.774;7.220;2023-11-21T12:51:52;11.83;;;5.77;;
23410;SDS011;11878;51.774;7.220;2023-11-21T13:26:34;11.40;;;4.07;;
23410;SDS011;11878;51.774;7.220;2023-11-21T13:40:02;11.43;;;4.90;;
23410;SDS011;11878;51.774;7.220;2023-11-21T13:43:11;7.57;;;4.10;;
23410;SDS011;11878;51.774;7.220;2023-11-21T13:53:30;12.40;;;5.10;;
23410;SDS011;11878;51.774;7.220;2023-11-21T13:56:32;9.80;;;4.43;;
23410;SDS011;11878;51.774;7.220;2023-11-21T13:59:34;5.07;;;2.87;;
23410;SDS011;11878;51.774;7.220;2023-11-21T14:02:35;8.43;;;3.60;;
23410;SDS011;11878;51.774;7.220;2023-11-21T14:16:35;3.90;;;2.40;;
23410;SDS011;11878;51.774;7.220;2023-11-21T14:19:38;5.47;;;2.83;;
23410;SDS011;11878;51.774;7.220;2023-11-21T14:26:22;5.80;;;3.23;;
23410;SDS011;11878;51.774;7.220;2023-11-21T14:39:58;8.37;;;4.47;;
23410;SDS011;11878;51.774;7.220;2023-11-21T15:22:58;8.47;;;4.50;;
23410;SDS011;11878;51.774;7.220;2023-11-21T15:50:29;8.23;;;4.30;;
23410;SDS011;11878;51.774;7.220;2023-11-21T16:22:36;7.00;;;3.57;;
23410;SDS011;11878;51.774;7.220;2023-11-21T16:29:23;5.83;;;3.60;;
23410;SDS011;11878;51.774;7.220;2023-11-21T16:32:25;10.17;;;4.67;;
23410;SDS011;11878;51.774;7.220;2023-11-21T16:35:27;9.27;;;5.13;;
23410;SDS011;11878;51.774;7.220;2023-11-21T16:38:28;17.23;;;4.13;;
23410;SDS011;11878;51.774;7.220;2023-11-21T16:41:30;6.20;;;3.73;;
23410;SDS011;11878;51.774;7.220;2023-11-21T16:48:10;8.67;;;3.30;;
23410;SDS011;11878;51.774;7.220;2023-11-21T17:26:29;6.87;;;3.77;;
23410;SDS011;11878;51.774;7.220;2023-11-21T17:29:32;6.57;;;4.00;;
23410;SDS011;11878;51.774;7.220;2023-11-21T17:32:34;7.47;;;4.30;;
23410;SDS011;11878;51.774;7.220;2023-11-21T17:39:14;7.83;;;4.07;;
23410;SDS011;11878;51.774;7.220;2023-11-21T17:42:16;8.40;;;3.90;;
23410;SDS011;11878;51.774;7.220;2023-11-21T17:48:55;7.83;;;3.90;;
23410;SDS011;11878;51.774;7.220;2023-11-21T17:51:57;15.77;;;4.27;;
23410;SDS011;11878;51.774;7.220;2023-11-21T17:54:58;8.13;;;4.13;;
23410;SDS011;11878;51.774;7.220;2023-11-21T17:58:00;6.80;;;4.13;;
23410;SDS011;11878;51.774;7.220;2023-11-21T18:01:02;10.87;;;4.40;;
23410;SDS011;11878;51.774;7.220;2023-11-21T18:04:04;9.47;;;4.67;;
23410;SDS011;11878;51.774;7.220;2023-11-21T18:18:01;8.80;;;4.63;;
23410;SDS011;11878;51.774;7.220;2023-11-21T18:21:03;9.47;;;4.67;;
23410;SDS011;11878;51.774;7.220;2023-11-21T18:24:05;10.83;;;5.63;;
23410;SDS011;11878;51.774;7.220;2023-11-21T18:27:08;10.07;;;6.03;;
23410;SDS011;11878;51.774;7.220;2023-11-21T18:37:26;10.93;;;5.33;;
23410;SDS011;11878;51.774;7.220;2023-11-21T18:44:22;10.87;;;5.83;;
23410;SDS011;11878;51.774;7.220;2023-11-21T18:47:24;10.83;;;5.07;;
23410;SDS011;11878;51.774;7.220;2023-11-21T18:50:26;9.60;;;5.90;;
23410;SDS011;11878;51.774;7.220;2023-11-21T18:53:29;11.77;;;6.50;;
23410;SDS011;11878;51.774;7.220;2023-11-21T18:56:33;10.33;;;5.57;;
23410;SDS011;11878;51.774;7.220;2023-11-21T18:59:35;11.37;;;6.27;;
23410;SDS011;11878;51.774;7.220;2023-11-21T19:02:37;19.53;;;8.10;;
23410;SDS011;11878;51.774;7.220;2023-11-21T19:12:43;20.70;;;8.13;;
23410;SDS011;11878;51.774;7.220;2023-11-21T19:15:45;11.00;;;6.93;;
23410;SDS011;11878;51.774;7.220;2023-11-21T19:18:47;14.53;;;6.97;;
23410;SDS011;11878;51.774;7.220;2023-11-21T19:21:51;14.97;;;7.13;;
23410;SDS011;11878;51.774;7.220;2023-11-21T19:24:53;13.97;;;8.20;;
23410;SDS011;11878;51.774;7.220;2023-11-21T19:27:55;14.90;;;6.90;;
23410;SDS011;11878;51.774;7.220;2023-11-21T19:30:58;11.40;;;6.60;;
23410;SDS011;11878;51.774;7.220;2023-11-21T19:41:19;16.03;;;7.40;;
23410;SDS011;11878;51.774;7.220;2023-11-21T19:44:21;11.40;;;6.37;;
23410;SDS011;11878;51.774;7.220;2023-11-21T19:47:23;11.20;;;6.83;;
23410;SDS011;11878;51.774;7.220;2023-11-21T19:50:25;9.30;;;5.87;;
23410;SDS011;11878;51.774;7.220;2023-11-21T19:53:27;10.57;;;6.63;;
23410;SDS011;11878;51.774;7.220;2023-11-21T19:56:29;9.10;;;5.43;;
23410;SDS011;11878;51.774;7.220;2023-11-21T19:59:33;12.93;;;5.87;;
23410;SDS011;11878;51.774;7.220;2023-11-21T20:02:35;10.07;;;5.33;;
23410;SDS011;11878;51.774;7.220;2023-11-21T20:05:37;13.77;;;5.97;;
23410;SDS011;11878;51.774;7.220;2023-11-21T20:08:39;10.77;;;5.57;;
23410;SDS011;11878;51.774;7.220;2023-11-21T20:11:42;10.33;;;5.43;;
23410;SDS011;11878;51.774;7.220;2023-11-21T20:14:47;11.77;;;5.27;;
23410;SDS011;11878;51.774;7.220;2023-11-21T20:17:49;8.50;;;5.40;;
23410;SDS011;11878;51.774;7.220;2023-11-21T20:20:50;8.97;;;4.97;;
23410;SDS011;11878;51.774;7.220;2023-11-21T20:23:52;9.90;;;5.47;;
23410;SDS011;11878;51.774;7.220;2023-11-21T20:26:54;8.87;;;5.50;;
23410;SDS011;11878;51.774;7.220;2023-11-21T20:43:54;11.50;;;5.40;;
23410;SDS011;11878;51.774;7.220;2023-11-21T20:46:57;11.83;;;6.20;;
23410;SDS011;11878;51.774;7.220;2023-11-21T20:50:10;11.93;;;5.73;;
23410;SDS011;11878;51.774;7.220;2023-11-21T20:53:12;10.60;;;5.80;;
23410;SDS011;11878;51.774;7.220;2023-11-21T20:56:14;12.47;;;6.70;;
23410;SDS011;11878;51.774;7.220;2023-11-21T20:59:17;12.47;;;6.57;;
23410;SDS011;11878;51.774;7.220;2023-11-21T21:02:19;12.53;;;6.97;;
23410;SDS011;11878;51.774;7.220;2023-11-21T21:05:21;9.90;;;5.90;;
23410;SDS011;11878;51.774;7.220;2023-11-21T21:08:24;13.33;;;6.27;;
23410;SDS011;11878;51.774;7.220;2023-11-21T21:11:27;12.40;;;5.77;;
23410;SDS011;11878;51.774;7.220;2023-11-21T21:14:32;9.13;;;5.57;;
23410;SDS011;11878;51.774;7.220;2023-11-21T21:17:34;9.67;;;5.63;;
23410;SDS011;11878;51.774;7.220;2023-11-21T21:20:36;10.23;;;5.47;;
23410;SDS011;11878;51.774;7.220;2023-11-21T21:23:38;12.53;;;6.20;;
23410;SDS011;11878;51.774;7.220;2023-11-21T21:26:40;10.30;;;5.40;;
23410;SDS011;11878;51.774;7.220;2023-11-21T21:29:42;10.90;;;5.73;;
23410;SDS011;11878;51.774;7.220;2023-11-21T21:32:43;9.67;;;4.90;;
23410;SDS011;11878;51.774;7.220;2023-11-21T21:35:45;11.33;;;6.30;;
23410;SDS011;11878;51.774;7.220;2023-11-21T21:38:47;9.70;;;5.90;;
23410;SDS011;11878;51.774;7.220;2023-11-21T21:41:52;10.63;;;5.63;;
23410;SDS011;11878;51.774;7.220;2023-11-21T21:44:53;11.37;;;6.13;;
23410;SDS011;11878;51.774;7.220;2023-11-21T21:47:55;9.43;;;5.13;;
23410;SDS011;11878;51.774;7.220;2023-11-21T21:50:57;12.67;;;4.70;;
23410;SDS011;11878;51.774;7.220;2023-11-21T21:53:59;10.30;;;6.30;;
23410;SDS011;11878;51.774;7.220;2023-11-21T21:57:01;9.07;;;5.40;;
23410;SDS011;11878;51.774;7.220;2023-11-21T22:00:03;11.70;;;6.43;;
23410;SDS011;11878;51.774;7.220;2023-11-21T22:03:17;13.17;;;7.00;;
23410;SDS011;11878;51.774;7.220;2023-11-21T22:06:19;9.77;;;5.73;;
23410;SDS011;11878;51.774;7.220;2023-11-21T22:09:21;10.37;;;5.43;;
23410;SDS011;11878;51.774;7.220;2023-11-21T22:12:23;11.30;;;5.10;;
23410;SDS011;11878;51.774;7.220;2023-11-21T22:19:02;7.43;;;4.73;;
23410;SDS011;11878;51.774;7.220;2023-11-21T22:22:04;8.30;;;4.77;;
23410;SDS011;11878;51.774;7.220;2023-11-21T22:25:06;12.37;;;5.07;;
23410;SDS011;11878;51.774;7.220;2023-11-21T22:31:40;7.30;;;4.43;;
23410;SDS011;11878;51.774;7.220;2023-11-21T22:34:42;8.53;;;4.50;;
23410;SDS011;11878;51.774;7.220;2023-11-21T22:37:44;5.40;;;3.23;;
23410;SDS011;11878;51.774;7.220;2023-11-21T22:40:46;9.07;;;4.50;;
23410;SDS011;11878;51.774;7.220;2023-11-21T22:43:48;6.37;;;3.03;;
23410;SDS011;11878;51.774;7.220;2023-11-21T22:50:28;4.63;;;2.53;;
23410;SDS011;11878;51.774;7.220;2023-11-21T22:57:01;4.43;;;2.73;;
23410;SDS011;11878;51.774;7.220;2023-11-21T23:00:03;6.07;;;3.10;;
23410;SDS011;11878;51.774;7.220;2023-11-21T23:03:21;5.70;;;2.93;;
23410;SDS011;11878;51.774;7.220;2023-11-21T23:06:24;4.33;;;2.87;;
23410;SDS011;11878;51.774;7.220;2023-11-21T23:09:27;5.73;;;3.07;;
23410;SDS011;11878;51.774;7.220;2023-11-21T23:12:29;7.43;;;3.43;;
23410;SDS011;11878;51.774;7.220;2023-11-21T23:15:31;8.33;;;2.97;;
23410;SDS011;11878;51.774;7.220;2023-11-21T23:18:33;7.40;;;2.80;;
23410;SDS011;11878;51.774;7.220;2023-11-21T23:21:35;8.37;;;3.00;;
23410;SDS011;11878;51.774;7.220;2023-11-21T23:24:36;6.87;;;3.60;;
23410;SDS011;11878;51.774;7.220;2023-11-21T23:27:38;5.70;;;3.10;;
23410;SDS011;11878;51.774;7.220;2023-11-21T23:30:43;5.37;;;3.13;;
23410;SDS011;11878;51.774;7.220;2023-11-21T23:33:45;5.37;;;3.17;;
23410;SDS011;11878;51.774;7.220;2023-11-21T23:36:47;6.70;;;4.03;;
23410;SDS011;11878;51.774;7.220;2023-11-21T23:39:49;7.63;;;2.67;;
23410;SDS011;11878;51.774;7.220;2023-11-21T23:42:50;5.47;;;3.07;;
23410;SDS011;11878;51.774;7.220;2023-11-21T23:45:52;4.87;;;2.60;;
23410;SDS011;11878;51.774;7.220;2023-11-21T23:48:57;5.90;;;3.10;;
23410;SDS011;11878;51.774;7.220;2023-11-21T23:51:59;5.60;;;3.70;;
23410;SDS011;11878;51.774;7.220;2023-11-21T23:55:01;7.93;;;4.53;;
23410;SDS011;11878;51.774;7.220;2023-11-21T23:58:04;7.97;;;3.80;;
